TimeCDT,TemperatureF,Dew PointF,Humidity,Sea Level PressureIn,VisibilityMPH,Wind Direction,Wind SpeedMPH,Gust SpeedMPH,PrecipitationIn,Events,Conditions,WindDirDegrees,DateUTC
12:15 AM,51.1,47.7,88,30.33,10.0,East,4.6,-,N/A,,Clear,100,2013-09-17 05:15:00
12:35 AM,51.1,47.8,89,30.33,10.0,East,6.9,-,N/A,,Clear,100,2013-09-17 05:35:00
12:55 AM,52.9,47.5,82,30.33,10.0,East,9.2,-,N/A,,Clear,100,2013-09-17 05:55:00
1:15 AM,53.2,46.6,78,30.33,10.0,East,10.4,-,N/A,,Clear,100,2013-09-17 06:15:00
1:35 AM,52.7,46.0,78,30.33,10.0,East,6.9,-,N/A,,Clear,100,2013-09-17 06:35:00
1:55 AM,52.5,45.7,78,30.33,10.0,East,6.9,-,N/A,,Clear,100,2013-09-17 06:55:00
2:15 AM,52.0,45.5,79,30.33,10.0,ESE,6.9,-,N/A,,Clear,110,2013-09-17 07:15:00
2:35 AM,51.4,45.5,80,30.33,10.0,ESE,6.9,-,N/A,,Clear,110,2013-09-17 07:35:00
2:55 AM,51.4,45.5,80,30.33,10.0,ESE,6.9,-,N/A,,Clear,110,2013-09-17 07:55:00
3:15 AM,50.2,45.3,83,30.33,10.0,SE,6.9,-,N/A,,Clear,130,2013-09-17 08:15:00
3:35 AM,50.0,45.5,85,30.33,10.0,SE,8.1,-,N/A,,Clear,130,2013-09-17 08:35:00
3:55 AM,49.6,45.1,84,30.33,10.0,SE,6.9,-,N/A,,Clear,140,2013-09-17 08:55:00
4:15 AM,49.1,45.0,86,30.33,10.0,SE,6.9,-,N/A,,Clear,130,2013-09-17 09:15:00
4:35 AM,49.3,45.0,85,30.32,10.0,ESE,6.9,-,N/A,,Clear,120,2013-09-17 09:35:00
4:55 AM,49.8,45.1,84,30.32,10.0,ESE,8.1,-,N/A,,Clear,120,2013-09-17 09:55:00
5:15 AM,49.8,45.3,84,30.32,10.0,SE,8.1,-,N/A,,Clear,130,2013-09-17 10:15:00
5:35 AM,49.6,45.1,84,30.32,10.0,SE,8.1,-,N/A,,Clear,130,2013-09-17 10:35:00
5:55 AM,49.3,45.5,87,30.32,10.0,SE,8.1,-,N/A,,Clear,130,2013-09-17 10:55:00
6:15 AM,49.1,45.1,86,30.33,10.0,SE,5.8,-,N/A,,Clear,140,2013-09-17 11:15:00
6:35 AM,48.4,45.5,90,30.33,10.0,SE,5.8,-,N/A,,Clear,130,2013-09-17 11:35:00
6:55 AM,49.5,46.0,88,30.33,10.0,ESE,5.8,-,N/A,,Clear,120,2013-09-17 11:55:00
7:15 AM,50.0,46.0,86,30.33,10.0,SE,6.9,-,N/A,,Clear,130,2013-09-17 12:15:00
7:35 AM,51.4,46.9,85,30.33,10.0,SE,6.9,-,N/A,,Clear,130,2013-09-17 12:35:00
7:55 AM,53.1,47.5,81,30.33,10.0,SE,8.1,-,N/A,,Clear,130,2013-09-17 12:55:00
8:15 AM,54.7,47.5,77,30.33,10.0,SE,10.4,-,N/A,,Clear,140,2013-09-17 13:15:00
8:35 AM,55.4,47.5,75,30.33,10.0,SE,8.1,-,N/A,,Clear,140,2013-09-17 13:35:00
8:55 AM,56.7,48.4,74,30.33,10.0,SE,6.9,-,N/A,,Clear,140,2013-09-17 13:55:00
9:15 AM,58.1,47.7,68,30.33,10.0,SE,9.2,-,N/A,,Clear,140,2013-09-17 14:15:00
9:35 AM,59.4,48.2,67,30.33,10.0,SE,9.2,-,N/A,,Mostly Cloudy,140,2013-09-17 14:35:00
9:55 AM,60.1,48.2,65,30.33,10.0,SE,10.4,-,N/A,,Overcast,130,2013-09-17 14:55:00
10:15 AM,60.8,49.1,65,30.32,10.0,SE,10.4,-,N/A,,Overcast,130,2013-09-17 15:15:00
10:35 AM,62.4,49.1,62,30.32,10.0,SE,11.5,-,N/A,,Overcast,130,2013-09-17 15:35:00
10:55 AM,62.2,49.1,62,30.32,10.0,SSE,9.2,-,N/A,,Mostly Cloudy,150,2013-09-17 15:55:00
11:15 AM,64.8,49.5,58,30.30,10.0,SSE,11.5,-,N/A,,Mostly Cloudy,150,2013-09-17 16:15:00
11:35 AM,64.6,49.5,58,30.30,10.0,ESE,10.4,-,N/A,,Scattered Clouds,120,2013-09-17 16:35:00
11:55 AM,66.9,50.4,55,30.29,10.0,SSE,9.2,-,N/A,,Scattered Clouds,160,2013-09-17 16:55:00
12:15 PM,66.4,50.0,56,30.29,10.0,SSE,6.9,-,N/A,,Mostly Cloudy,150,2013-09-17 17:15:00
12:35 PM,65.8,50.2,57,30.28,10.0,SE,6.9,-,N/A,,Overcast,130,2013-09-17 17:35:00
12:55 PM,68.0,50.0,52,30.27,10.0,ESE,4.6,-,N/A,,Scattered Clouds,110,2013-09-17 17:55:00
1:15 PM,67.3,50.2,54,30.26,10.0,SE,4.6,-,N/A,,Mostly Cloudy,140,2013-09-17 18:15:00
1:35 PM,68.2,50.7,54,30.25,10.0,SE,5.8,-,N/A,,Overcast,130,2013-09-17 18:35:00
1:55 PM,69.8,51.1,51,30.24,10.0,ESE,6.9,-,N/A,,Scattered Clouds,120,2013-09-17 18:55:00
2:15 PM,69.3,50.9,52,30.23,10.0,SE,6.9,-,N/A,,Scattered Clouds,140,2013-09-17 19:15:00
2:35 PM,69.8,50.9,51,30.22,10.0,SE,5.8,-,N/A,,Mostly Cloudy,140,2013-09-17 19:35:00
2:55 PM,69.6,50.5,51,30.21,10.0,SE,5.8,-,N/A,,Scattered Clouds,140,2013-09-17 19:55:00
3:15 PM,70.2,50.9,50,30.21,10.0,SE,6.9,-,N/A,,Scattered Clouds,140,2013-09-17 20:15:00
3:35 PM,70.0,50.5,50,30.19,10.0,SE,3.5,-,N/A,,Clear,140,2013-09-17 20:35:00
3:55 PM,70.7,50.9,49,30.19,10.0,SE,5.8,-,N/A,,Scattered Clouds,140,2013-09-17 20:55:00
4:15 PM,70.3,50.4,49,30.18,10.0,SSE,9.2,-,N/A,,Scattered Clouds,160,2013-09-17 21:15:00
4:35 PM,69.8,49.8,49,30.18,10.0,SE,6.9,-,N/A,,Clear,140,2013-09-17 21:35:00
4:55 PM,69.1,50.5,52,30.17,10.0,SE,5.8,-,N/A,,Clear,130,2013-09-17 21:55:00
5:15 PM,69.1,51.3,53,30.17,10.0,SE,3.5,-,N/A,,Clear,130,2013-09-17 22:15:00
5:35 PM,68.9,51.4,54,30.17,10.0,SE,4.6,-,N/A,,Clear,130,2013-09-17 22:35:00
5:55 PM,67.8,52.0,57,30.16,10.0,SE,4.6,-,N/A,,Clear,130,2013-09-17 22:55:00
6:15 PM,66.4,52.7,61,30.16,10.0,SE,5.8,-,N/A,,Clear,130,2013-09-17 23:15:00
6:35 PM,65.8,52.3,62,30.16,10.0,SE,4.6,-,N/A,,Clear,130,2013-09-17 23:35:00
6:55 PM,65.1,52.2,63,30.15,10.0,ESE,3.5,-,N/A,,Clear,110,2013-09-17 23:55:00
7:15 PM,65.3,52.2,62,30.15,10.0,ESE,5.8,-,N/A,,Clear,110,2013-09-18 00:15:00
7:35 PM,65.3,51.4,61,30.15,10.0,East,4.6,-,N/A,,Clear,100,2013-09-18 00:35:00
7:55 PM,64.4,51.8,64,30.16,10.0,East,5.8,-,N/A,,Clear,100,2013-09-18 00:55:00
8:15 PM,64.0,51.8,64,30.15,10.0,East,4.6,-,N/A,,Clear,100,2013-09-18 01:15:00
8:35 PM,63.5,51.4,65,30.15,10.0,East,4.6,-,N/A,,Clear,100,2013-09-18 01:35:00
8:55 PM,63.5,51.4,65,30.15,10.0,ESE,5.8,-,N/A,,Clear,110,2013-09-18 01:55:00
9:15 PM,63.5,51.3,64,30.15,10.0,ESE,4.6,-,N/A,,Clear,110,2013-09-18 02:15:00
9:35 PM,63.5,51.3,64,30.14,10.0,ESE,5.8,-,N/A,,Clear,120,2013-09-18 02:35:00
9:55 PM,62.6,51.8,68,30.14,10.0,SE,6.9,-,N/A,,Clear,130,2013-09-18 02:55:00
10:15 PM,62.1,52.0,70,30.14,10.0,SE,6.9,-,N/A,,Clear,130,2013-09-18 03:15:00
10:35 PM,61.9,51.8,69,30.14,10.0,SE,8.1,-,N/A,,Mostly Cloudy,140,2013-09-18 03:35:00
10:55 PM,61.5,51.4,69,30.14,10.0,SSE,5.8,-,N/A,,Mostly Cloudy,150,2013-09-18 03:55:00
11:15 PM,60.3,50.9,71,30.13,10.0,SSE,5.8,-,N/A,,Scattered Clouds,150,2013-09-18 04:15:00
11:35 PM,59.7,50.9,73,30.13,10.0,SE,6.9,-,N/A,,Clear,140,2013-09-18 04:35:00
11:55 PM,57.6,50.4,77,30.12,10.0,SE,6.9,-,N/A,,Clear,140,2013-09-18 04:55:00